createdAt,value
2022-10-05T00:01:28.954Z,1.00
2022-10-05T00:04:03.219Z,1.00
2022-10-05T00:06:31.610Z,1.00
2022-10-05T00:09:02.185Z,1.00
2022-10-05T00:14:00.908Z,1.00
2022-10-05T00:16:30.800Z,1.00
2022-10-05T00:19:01.007Z,99.90
2022-10-05T00:21:30.754Z,1.00
2022-10-05T00:23:59.900Z,1.00
2022-10-05T00:26:34.478Z,99.90
2022-10-05T00:29:07.801Z,1.00
2022-10-05T00:36:35.342Z,1.00
2022-10-05T00:39:04.586Z,1.00
2022-10-05T00:41:51.380Z,99.90
2022-10-05T00:44:40.949Z,99.90
2022-10-05T00:47:37.425Z,99.90
2022-10-05T00:52:57.121Z,99.90
2022-10-05T00:55:40.974Z,99.90
2022-10-05T00:58:21.730Z,1.00
2022-10-05T01:01:06.090Z,1.00
2022-10-05T01:03:50.001Z,1.00
2022-10-05T01:06:29.126Z,1.00
2022-10-05T01:09:10.174Z,1.00
2022-10-05T01:11:46.101Z,99.90
2022-10-05T01:14:22.813Z,1.00
2022-10-05T01:17:00.396Z,1.00
2022-10-05T01:20:02.379Z,1.00
2022-10-05T01:22:48.748Z,1.00
2022-10-05T01:25:27.933Z,1.00
2022-10-05T01:28:04.361Z,1.00
2022-10-05T01:30:40.855Z,1.00
2022-10-05T01:33:19.774Z,1.00
2022-10-05T01:35:58.767Z,1.00
2022-10-05T01:38:44.483Z,1.00
2022-10-05T01:41:29.489Z,1.00
2022-10-05T01:44:03.320Z,1.00
2022-10-05T01:46:39.422Z,1.00
2022-10-05T01:49:34.570Z,1.00
2022-10-05T01:52:26.654Z,1.00
2022-10-05T01:55:13.163Z,1.00
2022-10-05T01:57:58.281Z,1.00
2022-10-05T02:00:29.840Z,1.00
2022-10-05T02:03:05.805Z,1.00
2022-10-05T02:05:44.897Z,1.00
2022-10-05T02:08:20.817Z,1.00
2022-10-05T02:10:56.163Z,1.00
2022-10-05T02:13:33.409Z,1.00
2022-10-05T02:16:08.817Z,1.00
2022-10-05T02:18:50.887Z,1.00
2022-10-05T02:21:20.541Z,1.00
2022-10-05T02:23:53.042Z,1.00
2022-10-05T02:26:22.298Z,1.00
2022-10-05T02:28:56.637Z,1.00
2022-10-05T02:31:33.309Z,1.00
2022-10-05T02:34:22.177Z,1.00
2022-10-05T02:36:57.117Z,1.00
2022-10-05T02:39:37.964Z,1.00
2022-10-05T02:42:17.413Z,1.00
2022-10-05T02:44:55.829Z,1.00
2022-10-05T02:47:35.038Z,1.00
2022-10-05T02:50:17.200Z,1.00
2022-10-05T02:52:55.066Z,1.00
2022-10-05T02:55:31.527Z,1.00
2022-10-05T02:58:08.468Z,1.00
2022-10-05T03:00:46.959Z,1.00
2022-10-05T03:03:24.956Z,1.00
2022-10-05T03:06:00.984Z,1.00
2022-10-05T03:08:39.067Z,1.00
2022-10-05T03:11:16.193Z,1.00
2022-10-05T03:13:52.911Z,1.00
2022-10-05T03:16:49.574Z,1.00
2022-10-05T03:19:47.713Z,1.00
2022-10-05T03:22:34.145Z,1.00
2022-10-05T03:25:31.061Z,1.00
2022-10-05T03:28:08.881Z,1.00
2022-10-05T03:30:43.462Z,1.00
2022-10-05T03:33:20.763Z,1.00
2022-10-05T03:36:06.123Z,1.00
2022-10-05T03:38:47.957Z,1.00
2022-10-05T03:41:24.174Z,1.00
2022-10-05T03:44:22.882Z,1.00
2022-10-05T03:47:15.676Z,1.00
2022-10-05T03:50:11.643Z,1.00
2022-10-05T03:52:49.384Z,1.00
2022-10-05T03:55:27.287Z,1.00
2022-10-05T03:58:00.714Z,1.00
2022-10-05T04:00:31.571Z,1.00
2022-10-05T04:03:12.111Z,1.00
2022-10-05T04:05:50.494Z,1.00
2022-10-05T04:08:28.137Z,1.00
2022-10-05T04:10:58.923Z,1.00
2022-10-05T04:13:35.422Z,1.00
2022-10-05T04:16:11.825Z,1.00
2022-10-05T04:18:45.875Z,1.00
2022-10-05T04:21:23.873Z,1.00
2022-10-05T04:24:01.918Z,1.00
2022-10-05T04:26:38.735Z,1.00
2022-10-05T04:29:17.348Z,1.00
2022-10-05T04:32:03.603Z,1.00
2022-10-05T04:34:47.828Z,1.00
2022-10-05T04:37:22.751Z,1.00
2022-10-05T04:40:09.766Z,1.00
2022-10-05T04:42:46.829Z,1.00
2022-10-05T04:45:29.977Z,1.00
2022-10-05T04:48:44.820Z,1.00
2022-10-05T04:51:32.740Z,1.00
2022-10-05T04:54:15.970Z,1.00
2022-10-05T04:56:52.184Z,1.00
2022-10-05T05:00:13.736Z,1.00
2022-10-05T05:03:05.538Z,99.90
2022-10-05T05:06:12.001Z,1.00
2022-10-05T05:09:00.524Z,1.00
2022-10-05T05:11:35.000Z,1.00
2022-10-05T05:14:40.260Z,1.00
2022-10-05T05:17:26.609Z,1.00
2022-10-05T05:20:09.157Z,1.00
2022-10-05T05:22:48.396Z,99.90
2022-10-05T05:25:32.807Z,1.00
2022-10-05T05:28:18.945Z,1.00
2022-10-05T05:30:57.697Z,1.00
2022-10-05T05:33:39.381Z,1.00
2022-10-05T05:36:44.432Z,1.00
2022-10-05T05:39:27.924Z,1.00
2022-10-05T05:42:07.607Z,1.00
2022-10-05T05:44:44.316Z,1.00
2022-10-05T05:47:20.964Z,1.00
2022-10-05T05:50:16.859Z,1.00
2022-10-05T05:52:51.424Z,1.00
2022-10-05T05:55:29.913Z,1.00
2022-10-05T05:58:05.898Z,1.00
2022-10-05T06:00:42.979Z,1.00
2022-10-05T06:03:17.881Z,1.00
2022-10-05T06:05:50.764Z,1.00
2022-10-05T06:08:28.595Z,1.00
2022-10-05T06:11:07.763Z,1.00
2022-10-05T06:13:40.981Z,1.00
2022-10-05T06:16:22.209Z,1.00
2022-10-05T06:18:59.286Z,1.00
2022-10-05T06:21:36.191Z,1.00
2022-10-05T06:24:14.901Z,1.00
2022-10-05T06:27:19.021Z,1.00
2022-10-05T06:30:05.618Z,1.00
2022-10-05T06:32:49.851Z,1.00
2022-10-05T06:35:36.400Z,1.00
2022-10-05T06:38:30.857Z,1.00
2022-10-05T06:41:14.664Z,1.00
2022-10-05T06:43:54.163Z,1.00
2022-10-05T06:47:05.612Z,1.00
2022-10-05T06:50:02.779Z,1.00
2022-10-05T06:52:59.059Z,1.00
2022-10-05T06:55:38.930Z,1.00
2022-10-05T06:58:27.751Z,1.00
2022-10-05T07:01:04.206Z,1.00
2022-10-05T07:03:53.494Z,1.00
2022-10-05T07:06:30.654Z,99.90
2022-10-05T07:09:19.156Z,99.90
2022-10-05T07:12:05.680Z,99.90
2022-10-05T07:14:59.515Z,99.90
2022-10-05T07:17:46.021Z,99.90
2022-10-05T07:20:23.679Z,99.90
2022-10-05T07:23:12.849Z,99.90
2022-10-05T07:25:51.337Z,99.90
2022-10-05T07:28:30.722Z,99.90
2022-10-05T07:31:07.079Z,99.90
2022-10-05T07:33:46.671Z,99.90
2022-10-05T07:36:42.697Z,99.60
2022-10-05T07:39:20.217Z,64.00
2022-10-05T07:41:58.556Z,59.10
2022-10-05T07:44:34.677Z,99.90
2022-10-05T07:47:11.924Z,81.80
2022-10-05T07:49:48.846Z,1.00
2022-10-05T07:52:24.841Z,43.30
2022-10-05T07:55:03.211Z,2.60
2022-10-05T07:57:45.753Z,23.30
2022-10-05T08:00:18.774Z,10.30
2022-10-05T08:02:53.344Z,1.00
2022-10-05T08:05:27.444Z,1.00
2022-10-05T08:08:04.612Z,1.00
2022-10-05T08:10:41.398Z,1.00
2022-10-05T08:13:19.741Z,1.00
2022-10-05T08:15:55.033Z,1.00
2022-10-05T08:18:47.034Z,1.00
2022-10-05T08:21:20.681Z,1.00
2022-10-05T08:23:56.621Z,1.00
2022-10-05T08:26:34.165Z,1.00
2022-10-05T08:29:18.301Z,1.00
2022-10-05T08:31:51.209Z,1.00
2022-10-05T08:34:27.469Z,1.00
2022-10-05T08:37:05.071Z,1.00
2022-10-05T08:39:40.124Z,1.00
2022-10-05T08:42:38.130Z,1.00
2022-10-05T08:45:49.001Z,1.00
2022-10-05T08:48:50.708Z,1.00
2022-10-05T08:51:56.563Z,1.00
2022-10-05T08:54:56.910Z,1.00
2022-10-05T08:58:12.017Z,1.00
2022-10-05T09:00:56.945Z,1.00
2022-10-05T09:04:11.868Z,1.00
2022-10-05T09:07:09.178Z,1.00
2022-10-05T09:10:42.524Z,1.00
2022-10-05T09:13:29.785Z,1.00
2022-10-05T09:16:45.560Z,1.00
2022-10-05T09:19:51.670Z,1.00
2022-10-05T09:22:50.508Z,1.00
2022-10-05T09:25:31.944Z,1.00
2022-10-05T09:28:18.943Z,1.00
2022-10-05T09:31:23.941Z,1.00
2022-10-05T09:34:32.749Z,1.00
2022-10-05T09:37:44.217Z,1.00
2022-10-05T09:40:47.423Z,1.00
2022-10-05T09:43:54.179Z,1.00
2022-10-05T09:46:55.617Z,1.00
2022-10-05T09:50:06.328Z,1.00
2022-10-05T09:53:04.780Z,1.00
2022-10-05T09:56:34.662Z,1.00
2022-10-05T09:59:46.064Z,1.00
2022-10-05T10:02:39.114Z,1.00
2022-10-05T10:05:47.079Z,1.00
2022-10-05T10:08:32.143Z,1.00
2022-10-05T10:11:51.795Z,1.00
2022-10-05T10:15:10.947Z,1.00
2022-10-05T10:18:31.622Z,1.00
2022-10-05T10:21:35.581Z,1.00
2022-10-05T10:24:38.531Z,1.00
2022-10-05T10:27:27.410Z,1.00
2022-10-05T10:30:18.814Z,1.00
2022-10-05T10:33:20.521Z,1.00
2022-10-05T10:36:00.556Z,1.00
2022-10-05T10:38:41.322Z,1.00
2022-10-05T10:41:58.855Z,1.00
2022-10-05T10:45:06.656Z,1.00
2022-10-05T10:47:51.751Z,1.00
2022-10-05T10:51:14.898Z,1.00
2022-10-05T10:54:23.144Z,1.00
2022-10-05T10:57:10.591Z,1.00
2022-10-05T11:00:36.193Z,1.00
2022-10-05T11:03:59.819Z,1.00
2022-10-05T11:07:12.088Z,1.00
2022-10-05T11:10:30.212Z,1.00
2022-10-05T11:13:25.734Z,1.00
2022-10-05T11:16:32.150Z,1.00
2022-10-05T11:20:03.222Z,1.00
2022-10-05T11:23:23.910Z,1.00
2022-10-05T11:26:07.451Z,1.00
2022-10-05T11:29:18.788Z,1.00
2022-10-05T11:32:16.105Z,1.00
2022-10-05T11:35:34.736Z,1.00
2022-10-05T11:38:29.938Z,1.00
2022-10-05T11:41:33.746Z,1.00
2022-10-05T11:44:39.424Z,1.00
2022-10-05T11:47:18.533Z,1.00
2022-10-05T11:49:59.416Z,1.00
2022-10-05T11:52:36.228Z,1.00
2022-10-05T11:55:28.885Z,1.00
2022-10-05T11:58:01.598Z,1.00
2022-10-05T12:00:40.501Z,1.00
2022-10-05T12:03:48.737Z,1.00
2022-10-05T12:06:44.475Z,1.00
2022-10-05T12:09:33.296Z,1.00
2022-10-05T12:12:16.567Z,1.00
2022-10-05T12:14:58.167Z,1.00
2022-10-05T12:17:37.584Z,1.00
2022-10-05T12:20:15.932Z,1.00
2022-10-05T12:22:51.765Z,1.00
2022-10-05T12:25:28.408Z,1.00
2022-10-05T12:28:05.164Z,1.00
2022-10-05T12:31:03.699Z,1.00
2022-10-05T12:33:35.939Z,1.00
2022-10-05T12:36:12.023Z,1.00
2022-10-05T12:38:47.369Z,1.00
2022-10-05T12:41:24.168Z,1.00
2022-10-05T12:44:13.698Z,1.00
2022-10-05T12:46:53.649Z,1.00
2022-10-05T12:50:13.901Z,1.00
2022-10-05T12:53:00.279Z,1.00
2022-10-05T12:55:38.719Z,1.00
2022-10-05T12:58:30.010Z,1.00
2022-10-05T13:01:07.071Z,1.00
2022-10-05T13:03:39.820Z,1.00
2022-10-05T13:06:20.756Z,1.00
2022-10-05T13:08:56.134Z,1.00
2022-10-05T13:11:34.371Z,1.00
2022-10-05T13:14:18.214Z,1.00
2022-10-05T13:16:59.843Z,1.00
2022-10-05T13:19:40.343Z,1.00
2022-10-05T13:22:26.940Z,1.00
2022-10-05T13:25:20.427Z,1.00
2022-10-05T13:28:08.432Z,1.00
2022-10-05T13:30:40.432Z,1.00
2022-10-05T13:33:25.889Z,1.00
2022-10-05T13:36:01.706Z,1.00
2022-10-05T13:38:48.443Z,1.00
2022-10-05T13:41:31.822Z,1.00
2022-10-05T13:44:16.990Z,1.00
2022-10-05T13:46:50.468Z,1.00
2022-10-05T13:49:30.450Z,1.00
2022-10-05T13:52:11.775Z,1.00
2022-10-05T13:54:48.933Z,1.00
2022-10-05T13:57:36.152Z,1.00
2022-10-05T14:00:16.753Z,1.00
2022-10-05T14:05:22.731Z,1.00
2022-10-05T14:07:55.216Z,1.00
2022-10-05T14:10:42.962Z,1.00
2022-10-05T14:13:26.389Z,1.00
2022-10-05T14:16:15.390Z,1.00
2022-10-05T14:18:56.033Z,1.00
2022-10-05T14:21:29.783Z,1.00
2022-10-05T14:27:23.113Z,1.00
2022-10-05T14:29:59.925Z,1.00
2022-10-05T14:32:32.527Z,1.00
2022-10-05T14:35:15.223Z,1.00
2022-10-05T14:37:57.205Z,1.00
2022-10-05T14:40:32.217Z,1.00
2022-10-05T14:43:17.974Z,1.00
2022-10-05T14:45:56.231Z,1.00
2022-10-05T14:48:28.452Z,1.00
2022-10-05T14:51:02.301Z,1.00
2022-10-05T14:53:43.336Z,1.00
2022-10-05T14:56:43.137Z,1.00
2022-10-05T14:59:46.787Z,1.00
2022-10-05T15:02:45.612Z,1.00
2022-10-05T15:05:23.330Z,1.00
2022-10-05T15:07:57.942Z,1.00
2022-10-05T15:10:36.041Z,1.00
2022-10-05T15:13:14.194Z,1.00
2022-10-05T15:18:39.591Z,1.00
2022-10-05T15:21:33.067Z,1.00
2022-10-05T15:24:06.093Z,1.00
2022-10-05T15:26:50.645Z,1.00
2022-10-05T15:29:42.466Z,1.00
2022-10-05T15:32:29.379Z,1.00
2022-10-05T15:35:27.207Z,1.00
2022-10-05T15:38:00.086Z,1.00
2022-10-05T15:40:38.546Z,1.00
2022-10-05T15:43:16.917Z,1.00
2022-10-05T15:45:58.143Z,1.00
2022-10-05T15:48:36.144Z,1.00
2022-10-05T15:51:15.285Z,1.00
2022-10-05T15:53:49.941Z,1.00
2022-10-05T15:56:27.797Z,1.00
2022-10-05T15:59:03.152Z,1.00
2022-10-05T16:01:49.683Z,1.00
2022-10-05T16:04:29.182Z,1.00
2022-10-05T16:07:19.116Z,1.00
2022-10-05T16:09:58.044Z,1.00
2022-10-05T16:12:52.642Z,1.00
2022-10-05T16:15:28.980Z,1.00
2022-10-05T16:18:22.278Z,1.00
2022-10-05T16:20:57.778Z,1.00
2022-10-05T16:23:39.040Z,1.00
2022-10-05T16:26:21.207Z,1.00
2022-10-05T16:29:00.554Z,1.00
2022-10-05T16:31:37.539Z,1.00
2022-10-05T16:34:23.242Z,1.00
2022-10-05T16:37:04.811Z,1.00
2022-10-05T16:39:51.507Z,1.00
2022-10-05T16:42:41.929Z,1.00
2022-10-05T16:45:28.566Z,1.00
2022-10-05T16:48:10.692Z,1.00
2022-10-05T16:50:54.623Z,1.00
2022-10-05T16:53:30.337Z,1.00
2022-10-05T16:56:05.622Z,1.00
2022-10-05T17:01:42.119Z,1.00
2022-10-05T17:04:31.890Z,1.00
2022-10-05T17:07:25.561Z,1.00
2022-10-05T17:10:18.327Z,1.00
2022-10-05T17:13:01.209Z,1.00
2022-10-05T17:15:41.952Z,1.00
2022-10-05T17:18:29.638Z,1.00
2022-10-05T17:21:07.904Z,1.00
2022-10-05T17:23:53.504Z,1.00
2022-10-05T17:29:47.457Z,1.00
2022-10-05T17:32:50.241Z,1.00
2022-10-05T17:38:20.225Z,1.00
2022-10-05T17:44:27.076Z,1.00
2022-10-05T17:46:58.293Z,1.00
2022-10-05T17:50:14.596Z,1.00
2022-10-05T17:53:02.474Z,1.00
2022-10-05T17:56:03.208Z,1.00
2022-10-05T17:59:02.865Z,1.00
2022-10-05T18:01:36.173Z,1.00
2022-10-05T18:04:42.127Z,1.00
2022-10-05T18:07:24.841Z,1.00
2022-10-05T18:10:25.542Z,1.00
2022-10-05T18:13:21.750Z,1.00
2022-10-05T18:15:50.602Z,1.00
2022-10-05T18:24:53.194Z,1.00
2022-10-05T18:27:44.795Z,1.00
2022-10-05T18:30:22.807Z,1.00
2022-10-05T18:33:47.781Z,1.00
2022-10-05T18:36:37.549Z,1.00
2022-10-05T18:39:22.394Z,1.00
2022-10-05T18:42:01.635Z,1.00
2022-10-05T18:44:41.326Z,1.00
2022-10-05T18:47:20.686Z,1.00
2022-10-05T18:50:17.515Z,1.00
2022-10-05T18:53:11.795Z,1.00
2022-10-05T18:58:21.338Z,1.00
2022-10-05T19:01:30.343Z,1.00
2022-10-05T19:04:18.786Z,1.00
2022-10-05T19:07:05.692Z,1.00
2022-10-05T19:09:56.330Z,1.00
2022-10-05T19:12:41.364Z,1.00
2022-10-05T19:15:23.567Z,1.00
2022-10-05T19:18:11.121Z,1.00
2022-10-05T19:26:19.828Z,1.00
2022-10-05T19:29:02.687Z,1.00
2022-10-05T19:31:41.089Z,1.00
2022-10-05T19:34:34.217Z,1.00
2022-10-05T19:37:14.064Z,1.00
2022-10-05T19:39:51.459Z,1.00
2022-10-05T19:42:48.410Z,1.00
2022-10-05T19:45:23.815Z,1.00
2022-10-05T19:48:10.512Z,1.00
2022-10-05T19:53:19.064Z,1.00
2022-10-05T19:55:47.549Z,1.00
2022-10-05T19:58:22.359Z,1.00
2022-10-05T20:01:00.068Z,1.00
2022-10-05T20:03:30.645Z,1.00
2022-10-05T20:06:01.065Z,1.00
2022-10-05T20:08:41.807Z,1.00
2022-10-05T20:11:14.262Z,1.00
2022-10-05T20:13:44.709Z,1.00
2022-10-05T20:16:46.072Z,1.00
2022-10-05T20:19:57.050Z,1.00
2022-10-05T20:22:33.477Z,1.00
2022-10-05T20:25:06.703Z,1.00
2022-10-05T20:27:55.466Z,1.00
2022-10-05T20:30:27.413Z,1.00
2022-10-05T20:32:57.499Z,1.00
2022-10-05T20:35:30.429Z,1.00
2022-10-05T20:37:59.423Z,1.00
2022-10-05T20:40:30.586Z,1.00
2022-10-05T20:42:59.421Z,1.00
2022-10-05T20:45:28.412Z,1.00
2022-10-05T20:47:56.573Z,1.00
2022-10-05T20:50:24.760Z,1.00
2022-10-05T20:52:53.003Z,1.00
2022-10-05T20:57:51.269Z,1.00
2022-10-05T21:00:19.708Z,1.00
2022-10-05T21:02:48.247Z,1.00
2022-10-05T21:05:18.203Z,1.00
2022-10-05T21:07:46.729Z,1.00
2022-10-05T21:12:43.728Z,1.00
2022-10-05T21:15:13.303Z,1.00
2022-10-05T21:17:41.477Z,1.00
2022-10-05T21:20:11.131Z,1.00
2022-10-05T21:22:39.353Z,1.00
2022-10-05T21:25:08.958Z,1.00
2022-10-05T21:27:37.183Z,1.00
2022-10-05T21:30:06.538Z,1.00
2022-10-05T21:32:38.560Z,1.00
2022-10-05T21:35:10.489Z,1.00
2022-10-05T21:37:38.720Z,1.00
2022-10-05T21:40:07.956Z,1.00
2022-10-05T21:42:36.262Z,1.00
2022-10-05T21:47:35.753Z,1.00
2022-10-05T21:50:05.237Z,1.00
2022-10-05T21:52:34.673Z,1.00
2022-10-05T21:55:03.382Z,1.00
2022-10-05T22:00:00.693Z,1.00
2022-10-05T22:02:28.932Z,1.00
2022-10-05T22:04:58.819Z,1.00
2022-10-05T22:07:27.027Z,1.00
2022-10-05T22:09:55.228Z,1.00
2022-10-05T22:12:24.450Z,1.00
2022-10-05T22:14:52.619Z,1.00
2022-10-05T22:17:27.291Z,1.00
2022-10-05T22:19:56.234Z,1.00
2022-10-05T22:22:26.263Z,1.00
2022-10-05T22:24:55.542Z,1.00
2022-10-05T22:27:25.614Z,1.00
2022-10-05T22:29:55.044Z,1.00
2022-10-05T22:32:23.287Z,1.00
2022-10-05T22:37:19.979Z,1.00
2022-10-05T22:39:49.623Z,1.00
2022-10-05T22:42:17.922Z,1.00
2022-10-05T22:44:46.108Z,1.00
2022-10-05T22:47:14.302Z,1.00
2022-10-05T22:52:11.077Z,1.00
2022-10-05T22:54:39.519Z,1.00
2022-10-05T22:57:09.288Z,1.00
2022-10-05T22:59:37.504Z,1.00
2022-10-05T23:02:05.784Z,1.00
2022-10-05T23:04:33.979Z,1.00
2022-10-05T23:07:02.186Z,1.00
2022-10-05T23:09:30.400Z,1.00
2022-10-05T23:11:58.915Z,1.00
2022-10-05T23:14:30.710Z,1.00
2022-10-05T23:16:58.940Z,1.00
2022-10-05T23:19:27.164Z,1.00
2022-10-05T23:21:55.343Z,1.00
2022-10-05T23:24:23.843Z,1.00
2022-10-05T23:26:52.034Z,1.00
2022-10-05T23:29:20.227Z,1.00
2022-10-05T23:31:49.752Z,1.00
2022-10-05T23:34:18.012Z,1.00
2022-10-05T23:39:14.752Z,1.00
2022-10-05T23:41:44.365Z,1.00
2022-10-05T23:44:12.810Z,1.00
2022-10-05T23:49:10.864Z,1.00
2022-10-05T23:54:07.836Z,1.00
2022-10-05T23:56:36.026Z,1.00
2022-10-05T23:59:04.285Z,1.00
